Time;durP1;ratioP1;P1;durP2;ratioP2;P2;SDS_P1;SDS_P2;PMS_P1;PMS_P2;Temp;Humidity;BMP_temperature;BMP_pressure;BME280_temperature;BME280_humidity;BME280_pressure;Samples;Min_cycle;Max_cycle;Signal;HPM_P1;HPM_P2
2023/09/12 00:02:26;;;;;;;;;;;;;;;22.88;100.00;101194.31;5226825;28;19909;-76
2023/09/12 00:04:57;;;;;;;;;;;;;;;22.83;100.00;101189.53;5224865;28;19913;-76
2023/09/12 00:07:29;;;;;;;;;;;;;;;22.83;100.00;101196.75;5206562;28;19916;-76
2023/09/12 00:10:00;;;;;;;;;;;;;;;22.81;100.00;101198.81;5227653;28;19917;-76
2023/09/12 00:12:31;;;;;;;;;;;;;;;22.80;100.00;101197.16;5228094;28;20333;-76
2023/09/12 00:15:04;;;;;;;;;;;;;;;22.79;100.00;101201.66;5230904;28;19940;-76
2023/09/12 00:17:35;;;;;;;;;;;;;;;22.76;100.00;101199.41;5206803;28;19920;-76
2023/09/12 00:20:07;;;;;;;;;;;;;;;22.73;100.00;101206.97;5224904;28;19917;-76
2023/09/12 00:22:39;;;;;;;;;;;;;;;22.70;100.00;101197.53;5224740;28;19913;-76
2023/09/12 00:25:10;;;;;;;;;;;;;;;22.68;100.00;101206.78;5223984;28;20401;-76
2023/09/12 00:27:41;;;;;;;;;;;;;;;22.67;100.00;101207.81;5226754;28;20339;-76
2023/09/12 00:30:16;;;;;;;;;;;;;;;22.64;100.00;101210.88;5225245;28;19921;-76
2023/09/12 00:32:47;;;;;;;;;;;;;;;22.64;100.00;101205.53;5225429;28;19919;-76
2023/09/12 00:35:18;;;;;;;;;;;;;;;22.59;100.00;101204.28;5223140;28;19917;-76
2023/09/12 00:37:49;;;;;;;;;;;;;;;22.56;100.00;101209.22;5228004;28;19917;-76
2023/09/12 00:40:21;;;;;;;;;;;;;;;22.48;100.00;101199.53;5226047;28;20023;-75
2023/09/12 00:42:52;;;;;;;;;;;;;;;22.49;100.00;101203.84;5224659;28;20016;-75
2023/09/12 00:45:23;;;;;;;;;;;;;;;22.48;100.00;101210.22;5226344;28;19920;-76
2023/09/12 00:47:56;;;;;;;;;;;;;;;22.47;100.00;101208.56;5225750;28;19979;-75
2023/09/12 00:50:29;;;;;;;;;;;;;;;22.43;100.00;101201.97;5225754;28;19913;-76
2023/09/12 00:53:00;;;;;;;;;;;;;;;22.40;100.00;101198.88;5226961;28;19920;-76
2023/09/12 00:55:33;;;;;;;;;;;;;;;22.39;100.00;101203.41;5227203;28;19917;-76
2023/09/12 00:58:04;;;;;;;;;;;;;;;22.35;100.00;101194.16;5223882;28;20377;-76
2023/09/12 01:00:35;;;;;;;;;;;;;;;22.33;100.00;101196.19;5230245;28;19913;-76
2023/09/12 01:03:07;;;;;;;;;;;;;;;22.31;100.00;101190.19;5227006;28;19917;-76
2023/09/12 01:05:38;;;;;;;;;;;;;;;22.26;100.00;101198.00;5226099;28;19922;-75
2023/09/12 01:08:09;;;;;;;;;;;;;;;22.23;100.00;101198.38;5223986;28;19913;-76
2023/09/12 01:10:45;;;;;;;;;;;;;;;22.17;100.00;101186.66;5226950;28;19917;-76
2023/09/12 01:13:17;;;;;;;;;;;;;;;22.14;100.00;101188.91;5224059;28;19995;-76
2023/09/12 01:15:48;;;;;;;;;;;;;;;22.14;100.00;101189.72;5225344;28;19980;-76
2023/09/12 01:18:19;;;;;;;;;;;;;;;22.10;100.00;101194.59;5225813;28;19927;-76
2023/09/12 01:21:09;;;;;;;;;;;;;;;22.07;100.00;101186.16;5223873;28;19920;-76
2023/09/12 01:23:58;;;;;;;;;;;;;;;22.02;100.00;101183.28;5225068;28;19943;-76
2023/09/12 01:26:38;;;;;;;;;;;;;;;21.99;100.00;101189.00;5227199;28;19909;-75
2023/09/12 01:29:12;;;;;;;;;;;;;;;21.99;100.00;101192.50;5224379;28;20267;-76
2023/09/12 01:31:46;;;;;;;;;;;;;;;21.99;100.00;101183.66;5226399;28;19957;-76
2023/09/12 01:34:17;;;;;;;;;;;;;;;21.98;100.00;101188.19;5227032;28;19913;-76
2023/09/12 01:36:48;;;;;;;;;;;;;;;21.94;100.00;101178.09;5225292;28;19983;-76
2023/09/12 01:39:19;;;;;;;;;;;;;;;21.95;100.00;101177.06;5222557;28;19916;-76
2023/09/12 01:41:52;;;;;;;;;;;;;;;21.90;100.00;101179.53;5223871;28;19913;-76
2023/09/12 01:44:24;;;;;;;;;;;;;;;21.87;100.00;101183.41;5222792;28;19951;-76
2023/09/12 01:46:57;;;;;;;;;;;;;;;21.77;100.00;101182.91;5222567;28;19917;-76
2023/09/12 01:49:29;;;;;;;;;;;;;;;21.76;100.00;101183.94;5224116;28;19917;-76
2023/09/12 01:52:00;;;;;;;;;;;;;;;21.75;100.00;101187.63;5225413;28;20268;-76
2023/09/12 01:54:32;;;;;;;;;;;;;;;21.71;100.00;101186.38;5223242;28;19913;-75
2023/09/12 01:57:04;;;;;;;;;;;;;;;21.68;100.00;101186.75;5222308;28;20370;-76
2023/09/12 01:59:35;;;;;;;;;;;;;;;21.66;100.00;101183.44;5223269;28;20400;-76
2023/09/12 02:02:07;;;;;;;;;;;;;;;21.67;100.00;101187.75;5222463;28;19913;-76
2023/09/12 02:04:38;;;;;;;;;;;;;;;21.63;100.00;101190.03;5226412;28;20000;-76
2023/09/12 02:07:09;;;;;;;;;;;;;;;21.62;100.00;101183.00;5222109;28;19925;-76
2023/09/12 02:09:40;;;;;;;;;;;;;;;21.59;100.00;101176.25;5224342;28;19921;-76
2023/09/12 02:12:11;;;;;;;;;;;;;;;21.56;100.00;101179.31;5227149;28;19928;-76
2023/09/12 02:14:42;;;;;;;;;;;;;;;21.56;100.00;101178.47;5222115;28;20017;-76
2023/09/12 02:17:14;;;;;;;;;;;;;;;21.55;100.00;101177.63;5222294;28;19921;-76
2023/09/12 02:19:47;;;;;;;;;;;;;;;21.52;100.00;101172.72;5227337;28;20011;-76
2023/09/12 02:22:18;;;;;;;;;;;;;;;21.50;100.00;101179.25;5225289;28;20378;-76
2023/09/12 02:24:49;;;;;;;;;;;;;;;21.45;100.00;101177.16;5222919;28;19952;-76
2023/09/12 02:27:20;;;;;;;;;;;;;;;21.41;100.00;101191.91;5227795;28;19916;-76
2023/09/12 02:29:51;;;;;;;;;;;;;;;21.39;100.00;101185.91;5223910;28;19925;-76
2023/09/12 02:32:22;;;;;;;;;;;;;;;21.37;100.00;101182.63;5224720;28;19913;-76
2023/09/12 02:34:56;;;;;;;;;;;;;;;21.35;100.00;101179.34;5222413;28;20490;-76
2023/09/12 02:37:27;;;;;;;;;;;;;;;21.33;100.00;101181.38;5225490;28;20003;-76
2023/09/12 02:39:58;;;;;;;;;;;;;;;21.34;100.00;101188.34;5224714;28;20007;-76
2023/09/12 02:42:30;;;;;;;;;;;;;;;21.29;100.00;101172.06;5227687;28;19913;-76
2023/09/12 02:45:01;;;;;;;;;;;;;;;21.26;100.00;101181.28;5225778;28;19920;-76
2023/09/12 02:47:32;;;;;;;;;;;;;;;21.22;100.00;101172.03;5219838;28;19928;-76
2023/09/12 02:50:04;;;;;;;;;;;;;;;21.20;100.00;101181.22;5226027;28;19924;-76
2023/09/12 02:52:35;;;;;;;;;;;;;;;21.16;100.00;101180.78;5226830;28;19959;-76
2023/09/12 02:55:06;;;;;;;;;;;;;;;21.12;100.00;101175.00;5226704;28;19913;-76
2023/09/12 02:57:37;;;;;;;;;;;;;;;21.08;100.00;101179.06;5230599;28;19921;-76
2023/09/12 03:00:09;;;;;;;;;;;;;;;21.08;100.00;101178.25;5228145;28;19916;-76
2023/09/12 03:02:40;;;;;;;;;;;;;;;21.04;100.00;101180.47;5230343;28;20298;-76
2023/09/12 03:05:11;;;;;;;;;;;;;;;21.04;100.00;101174.31;5226565;28;20363;-73
2023/09/12 03:07:43;;;;;;;;;;;;;;;21.03;100.00;101178.00;5230134;28;19913;-75
2023/09/12 03:10:14;;;;;;;;;;;;;;;21.00;100.00;101181.06;5227851;28;19920;-74
2023/09/12 03:12:45;;;;;;;;;;;;;;;20.98;100.00;101180.41;5228184;28;19916;-75
2023/09/12 03:15:16;;;;;;;;;;;;;;;20.97;100.00;101184.09;5225569;28;19924;-74
2023/09/12 03:17:48;;;;;;;;;;;;;;;20.98;100.00;101183.06;5227174;28;19975;-75
2023/09/12 03:20:19;;;;;;;;;;;;;;;20.98;100.00;101177.72;5226214;28;19917;-75
2023/09/12 03:22:50;;;;;;;;;;;;;;;20.98;100.00;101165.25;5226842;28;19913;-75
2023/09/12 03:25:21;;;;;;;;;;;;;;;20.97;100.00;101163.59;5226579;28;19925;-74
2023/09/12 03:27:52;;;;;;;;;;;;;;;20.97;100.00;101157.44;5228098;28;20027;-75
2023/09/12 03:30:23;;;;;;;;;;;;;;;20.97;100.00;101160.94;5228151;28;19924;-75
2023/09/12 03:32:55;;;;;;;;;;;;;;;20.95;100.00;101162.97;5229577;28;19990;-75
2023/09/12 03:35:27;;;;;;;;;;;;;;;20.92;100.00;101159.88;5227179;28;20007;-75
2023/09/12 03:37:58;;;;;;;;;;;;;;;20.91;100.00;101161.72;5226978;28;19924;-75
2023/09/12 03:40:30;;;;;;;;;;;;;;;20.87;100.00;101161.28;5228080;28;19991;-75
2023/09/12 03:43:01;;;;;;;;;;;;;;;20.87;100.00;101160.41;5227840;28;19924;-75
2023/09/12 03:45:32;;;;;;;;;;;;;;;20.83;100.00;101161.81;5227943;28;19917;-75
2023/09/12 03:48:04;;;;;;;;;;;;;;;20.81;100.00;101169.19;5230006;28;19917;-75
2023/09/12 03:50:35;;;;;;;;;;;;;;;20.80;100.00;101167.53;5228991;28;20015;-75
2023/09/12 03:53:06;;;;;;;;;;;;;;;20.82;100.00;101170.81;5209842;28;19944;-75
2023/09/12 03:55:37;;;;;;;;;;;;;;;20.79;100.00;101168.53;5229728;28;20504;-75
2023/09/12 03:58:08;;;;;;;;;;;;;;;20.78;100.00;101158.91;5230128;28;19988;-75
2023/09/12 04:00:40;;;;;;;;;;;;;;;20.78;100.00;101165.06;5228799;28;19912;-75
2023/09/12 04:03:11;;;;;;;;;;;;;;;20.79;100.00;101166.69;5230691;28;19920;-75
2023/09/12 04:05:42;;;;;;;;;;;;;;;20.81;100.00;101163.84;5227416;28;19924;-75
2023/09/12 04:08:13;;;;;;;;;;;;;;;20.86;100.00;101161.44;5223639;28;19913;-75
2023/09/12 04:10:45;;;;;;;;;;;;;;;20.84;100.00;101158.16;5226540;28;19931;-75
2023/09/12 04:13:16;;;;;;;;;;;;;;;20.85;100.00;101152.63;5228315;28;19927;-75
2023/09/12 04:15:47;;;;;;;;;;;;;;;20.86;100.00;101150.78;5227726;28;19910;-75
2023/09/12 04:18:18;;;;;;;;;;;;;;;20.87;100.00;101152.44;5210341;28;19964;-75
2023/09/12 04:20:49;;;;;;;;;;;;;;;20.82;100.00;101155.66;5226294;28;20015;-75
2023/09/12 04:23:20;;;;;;;;;;;;;;;20.84;100.00;101155.50;5226261;28;19913;-75
2023/09/12 04:25:52;;;;;;;;;;;;;;;20.85;100.00;101151.81;5228863;28;20382;-75
2023/09/12 04:28:26;;;;;;;;;;;;;;;20.86;100.00;101151.59;5208212;28;19936;-75
2023/09/12 04:31:00;;;;;;;;;;;;;;;20.91;100.00;101153.72;5227176;28;19949;-75
2023/09/12 04:33:32;;;;;;;;;;;;;;;20.88;100.00;101159.44;5227670;28;19913;-74
2023/09/12 04:36:03;;;;;;;;;;;;;;;20.85;100.00;101160.63;5230292;28;19921;-74
2023/09/12 04:38:34;;;;;;;;;;;;;;;20.84;100.00;101158.97;5227823;28;20412;-74
2023/09/12 04:41:06;;;;;;;;;;;;;;;20.86;100.00;101164.09;5223482;28;19925;-75
2023/09/12 04:43:37;;;;;;;;;;;;;;;20.87;100.00;101163.09;5226060;28;20382;-75
2023/09/12 04:46:08;;;;;;;;;;;;;;;20.88;100.00;101162.91;5230218;28;19913;-76
2023/09/12 04:48:40;;;;;;;;;;;;;;;20.86;100.00;101158.78;5227754;28;19928;-75
2023/09/12 04:51:11;;;;;;;;;;;;;;;20.87;100.00;101165.75;5227842;28;19966;-76
2023/09/12 04:53:42;;;;;;;;;;;;;;;20.87;100.00;101171.06;5226660;28;19921;-76
2023/09/12 04:56:13;;;;;;;;;;;;;;;20.86;100.00;101169.44;5223714;28;20023;-76
2023/09/12 04:58:44;;;;;;;;;;;;;;;20.85;100.00;101173.94;5224916;28;19913;-76
2023/09/12 05:01:16;;;;;;;;;;;;;;;20.85;100.00;101175.78;5224602;28;19917;-76
2023/09/12 05:03:47;;;;;;;;;;;;;;;20.84;100.00;101179.47;5226769;28;20004;-76
2023/09/12 05:06:19;;;;;;;;;;;;;;;20.82;100.00;101165.50;5225549;28;19917;-76
2023/09/12 05:08:50;;;;;;;;;;;;;;;20.83;100.00;101167.13;5224122;28;19975;-76
2023/09/12 05:11:24;;;;;;;;;;;;;;;20.86;100.00;101172.91;5225673;28;19940;-76
2023/09/12 05:13:55;;;;;;;;;;;;;;;20.85;100.00;101175.78;5224521;28;19917;-76
2023/09/12 05:16:26;;;;;;;;;;;;;;;20.86;100.00;101178.25;5225862;28;19917;-76
2023/09/12 05:18:58;;;;;;;;;;;;;;;20.83;100.00;101183.94;5228787;28;19927;-76
2023/09/12 05:21:29;;;;;;;;;;;;;;;20.87;100.00;101173.72;5224557;28;19924;-76
2023/09/12 05:24:00;;;;;;;;;;;;;;;20.92;100.00;101167.88;5221713;28;20362;-76
2023/09/12 05:26:31;;;;;;;;;;;;;;;20.90;100.00;101165.38;5224667;28;19959;-76
2023/09/12 05:29:02;;;;;;;;;;;;;;;20.89;100.00;101155.75;5225518;28;19920;-76
2023/09/12 05:31:33;;;;;;;;;;;;;;;20.90;100.00;101152.88;5207101;28;20282;-76
2023/09/12 05:34:05;;;;;;;;;;;;;;;20.90;100.00;101141.41;5225634;28;19917;-76
2023/09/12 05:36:36;;;;;;;;;;;;;;;20.89;100.00;101137.91;5224400;28;19951;-74
2023/09/12 05:39:07;;;;;;;;;;;;;;;20.91;100.00;101145.75;5225675;28;19912;-76
2023/09/12 05:41:38;;;;;;;;;;;;;;;20.93;100.00;101153.53;5224514;28;20271;-76
2023/09/12 05:44:12;;;;;;;;;;;;;;;20.93;100.00;101151.69;5222377;28;20290;-77
2023/09/12 05:46:47;;;;;;;;;;;;;;;20.93;100.00;101154.34;5224870;28;19909;-76
2023/09/12 05:49:18;;;;;;;;;;;;;;;20.93;100.00;101156.19;5226485;28;20351;-76
2023/09/12 05:51:49;;;;;;;;;;;;;;;20.92;100.00;101162.53;5225337;28;19921;-76
2023/09/12 05:54:20;;;;;;;;;;;;;;;20.93;100.00;101166.84;5226298;28;19921;-76
2023/09/12 05:56:53;;;;;;;;;;;;;;;20.96;100.00;101161.97;5220185;28;20404;-75
2023/09/12 05:59:24;;;;;;;;;;;;;;;20.98;100.00;101159.09;5223362;28;20035;-76
2023/09/12 06:01:55;;;;;;;;;;;;;;;20.98;100.00;101165.25;5222240;28;20471;-76
2023/09/12 06:04:26;;;;;;;;;;;;;;;20.99;100.00;101166.09;5223867;28;19941;-76
2023/09/12 06:06:58;;;;;;;;;;;;;;;20.99;100.00;101164.25;5223493;28;19948;-76
2023/09/12 06:09:29;;;;;;;;;;;;;;;21.01;100.00;101170.19;5221914;28;19920;-76
2023/09/12 06:12:01;;;;;;;;;;;;;;;21.01;100.00;101170.19;5220124;28;19923;-76
2023/09/12 06:14:32;;;;;;;;;;;;;;;20.99;100.00;101176.75;5218786;28;19925;-76
2023/09/12 06:17:03;;;;;;;;;;;;;;;21.00;100.00;101176.53;5222000;28;19935;-76
2023/09/12 06:19:35;;;;;;;;;;;;;;;21.02;100.00;101179.81;5223360;28;19913;-76
2023/09/12 06:22:06;;;;;;;;;;;;;;;21.08;100.00;101184.41;5221516;28;20259;-76
2023/09/12 06:24:39;;;;;;;;;;;;;;;21.10;100.00;101178.88;5225267;28;20218;-76
2023/09/12 06:27:13;;;;;;;;;;;;;;;21.16;100.00;101178.13;5221792;28;19913;-76
2023/09/12 06:29:45;;;;;;;;;;;;;;;21.12;100.00;101167.00;5223121;28;19944;-76
2023/09/12 06:32:17;;;;;;;;;;;;;;;21.26;100.00;101183.13;5225311;28;20422;-77
2023/09/12 06:34:48;;;;;;;;;;;;;;;21.30;100.00;101184.41;5230214;28;19923;-77
2023/09/12 06:37:19;;;;;;;;;;;;;;;21.30;100.00;101182.56;5224741;28;20424;-76
2023/09/12 06:39:51;;;;;;;;;;;;;;;21.31;100.00;101189.53;5227472;28;20063;-76
2023/09/12 06:42:22;;;;;;;;;;;;;;;21.32;100.00;101193.81;5226597;28;19917;-76
2023/09/12 06:44:53;;;;;;;;;;;;;;;21.34;100.00;101191.84;5223871;28;20393;-76
2023/09/12 06:47:25;;;;;;;;;;;;;;;21.37;100.00;101198.63;5221601;28;19927;-76
2023/09/12 06:49:56;;;;;;;;;;;;;;;21.39;100.00;101204.59;5226133;28;19921;-76
2023/09/12 06:52:27;;;;;;;;;;;;;;;21.40;100.00;101195.56;5229510;28;19912;-76
2023/09/12 06:54:58;;;;;;;;;;;;;;;21.43;100.00;101195.19;5227950;28;20354;-76
2023/09/12 06:57:30;;;;;;;;;;;;;;;21.46;100.00;101205.47;5228107;28;20374;-76
2023/09/12 07:00:06;;;;;;;;;;;;;;;21.47;100.00;101201.78;5225709;28;20336;-76
2023/09/12 07:02:37;;;;;;;;;;;;;;;21.46;100.00;101200.13;5227156;28;19959;-76
2023/09/12 07:05:09;;;;;;;;;;;;;;;21.48;100.00;101203.44;5225913;28;19961;-76
2023/09/12 07:07:40;;;;;;;;;;;;;;;21.51;100.00;101192.38;5225882;28;19989;-77
2023/09/12 07:10:11;;;;;;;;;;;;;;;21.55;100.00;101193.63;5228140;28;20271;-76
2023/09/12 07:12:42;;;;;;;;;;;;;;;21.62;100.00;101199.84;5228189;28;19988;-76
2023/09/12 07:15:14;;;;;;;;;;;;;;;21.67;100.00;101198.44;5227509;28;19915;-76
2023/09/12 07:17:45;;;;;;;;;;;;;;;21.64;100.00;101196.19;5226860;28;19921;-76
2023/09/12 07:20:17;;;;;;;;;;;;;;;21.70;100.00;101200.72;5226581;28;19909;-76
2023/09/12 07:22:48;;;;;;;;;;;;;;;21.75;100.00;101208.97;5224415;28;19925;-76
2023/09/12 07:25:23;;;;;;;;;;;;;;;21.78;100.00;101212.06;5226118;28;19936;-76
2023/09/12 07:27:54;;;;;;;;;;;;;;;21.80;100.00;101203.88;5208620;28;20291;-76
2023/09/12 07:30:26;;;;;;;;;;;;;;;21.80;100.00;101218.03;5229278;28;19936;-76
2023/09/12 07:32:57;;;;;;;;;;;;;;;21.83;100.00;101216.81;5224540;28;19948;-76
2023/09/12 07:35:28;;;;;;;;;;;;;;;21.85;100.00;101212.09;5226444;28;20432;-76
2023/09/12 07:37:59;;;;;;;;;;;;;;;21.86;100.00;101208.44;5223677;28;19940;-76
2023/09/12 07:40:30;;;;;;;;;;;;;;;21.93;100.00;101206.59;5225529;28;20015;-77
2023/09/12 07:43:02;;;;;;;;;;;;;;;22.01;100.00;101213.63;5226933;28;19917;-76
2023/09/12 07:45:36;;;;;;;;;;;;;;;22.08;100.00;101209.16;5226442;28;19978;-76
2023/09/12 07:48:10;;;;;;;;;;;;;;;22.17;100.00;101204.53;5224766;28;20010;-76
2023/09/12 07:50:42;;;;;;;;;;;;;;;22.21;100.00;101203.94;5225895;28;20294;-77
2023/09/12 07:53:13;;;;;;;;;;;;;;;22.19;100.00;101218.47;5228096;28;19921;-77
2023/09/12 07:55:47;;;;;;;;;;;;;;;22.26;100.00;101209.50;5225570;28;19920;-77
2023/09/12 07:58:18;;;;;;;;;;;;;;;22.34;100.00;101206.66;5227887;28;19971;-77
2023/09/12 08:00:49;;;;;;;;;;;;;;;22.43;100.00;101201.97;5225220;28;20373;-77
2023/09/12 08:03:20;;;;;;;;;;;;;;;22.51;100.00;101212.47;5225133;28;20591;-77
2023/09/12 08:05:56;;;;;;;;;;;;;;;22.58;100.00;101215.19;5227567;28;20067;-77
2023/09/12 08:08:27;;;;;;;;;;;;;;;22.69;100.00;101217.28;5223343;28;19951;-77
2023/09/12 08:10:59;;;;;;;;;;;;;;;22.75;100.00;101224.47;5225194;28;19925;-77
2023/09/12 08:13:30;;;;;;;;;;;;;;;22.81;100.00;101236.22;5224921;28;20456;-77
2023/09/12 08:16:01;;;;;;;;;;;;;;;22.81;100.00;101233.53;5226479;28;20298;-77
2023/09/12 08:18:32;;;;;;;;;;;;;;;22.92;100.00;101243.66;5226452;28;20386;-77
2023/09/12 08:21:03;;;;;;;;;;;;;;;23.02;100.00;101244.09;5226668;28;19995;-77
2023/09/12 08:23:36;;;;;;;;;;;;;;;23.14;100.00;101243.50;5227185;28;20335;-77
2023/09/12 08:26:08;;;;;;;;;;;;;;;23.24;100.00;101249.28;5224916;28;19917;-77
2023/09/12 08:28:40;;;;;;;;;;;;;;;23.29;100.00;101249.47;5224853;28;19913;-77
2023/09/12 08:31:11;;;;;;;;;;;;;;;23.39;100.00;101255.25;5224516;28;19959;-77
2023/09/12 08:33:42;;;;;;;;;;;;;;;23.51;100.00;101260.81;5225507;28;19917;-77
2023/09/12 08:36:14;;;;;;;;;;;;;;;23.53;100.00;101270.28;5223309;28;20436;-77
2023/09/12 08:38:45;;;;;;;;;;;;;;;23.52;100.00;101267.78;5225477;28;19913;-77
2023/09/12 08:41:16;;;;;;;;;;;;;;;23.51;100.00;101272.31;5225366;28;20394;-77
2023/09/12 08:43:48;;;;;;;;;;;;;;;23.54;100.00;101263.06;5223079;28;20366;-77
2023/09/12 08:46:20;;;;;;;;;;;;;;;23.58;100.00;101263.50;5222489;28;19917;-77
2023/09/12 08:48:52;;;;;;;;;;;;;;;23.63;100.00;101255.66;5225775;28;20469;-77
2023/09/12 08:51:26;;;;;;;;;;;;;;;23.71;100.00;101258.16;5227424;28;20444;-77
2023/09/12 08:53:57;;;;;;;;;;;;;;;23.73;100.00;101269.47;5224715;28;19909;-77
2023/09/12 08:56:28;;;;;;;;;;;;;;;23.75;100.00;101265.59;5225898;28;19917;-77
2023/09/12 08:59:01;;;;;;;;;;;;;;;23.79;100.00;101268.66;5226466;28;19943;-77
2023/09/12 09:01:33;;;;;;;;;;;;;;;23.84;100.00;101268.88;5225923;28;20115;-77
2023/09/12 09:04:05;;;;;;;;;;;;;;;23.93;100.00;101267.59;5226048;28;19991;-77
2023/09/12 09:06:37;;;;;;;;;;;;;;;24.02;100.00;101276.25;5227646;28;20500;-77
2023/09/12 09:09:08;;;;;;;;;;;;;;;24.07;100.00;101273.78;5226256;28;20286;-75
2023/09/12 09:11:40;;;;;;;;;;;;;;;24.08;100.00;101266.56;5225858;28;19917;-75
2023/09/12 09:14:11;;;;;;;;;;;;;;;24.21;100.00;101263.88;5228293;28;19909;-75
2023/09/12 09:16:42;;;;;;;;;;;;;;;24.38;100.00;101254.31;5222814;28;19936;-75
2023/09/12 09:19:15;;;;;;;;;;;;;;;24.49;100.00;101245.66;5224593;28;19921;-75
2023/09/12 09:21:46;;;;;;;;;;;;;;;24.62;100.00;101249.31;5225504;28;19913;-75
2023/09/12 09:24:18;;;;;;;;;;;;;;;24.64;100.00;101241.91;5227080;28;19924;-75
2023/09/12 09:26:50;;;;;;;;;;;;;;;24.68;100.00;101240.44;5226997;28;19920;-75
2023/09/12 09:29:21;;;;;;;;;;;;;;;24.66;100.00;101237.13;5223695;28;20362;-75
2023/09/12 09:31:52;;;;;;;;;;;;;;;24.71;100.00;101231.97;5226557;28;19927;-75
2023/09/12 09:34:24;;;;;;;;;;;;;;;24.80;100.00;101240.56;5223413;28;19916;-75
2023/09/12 09:36:57;;;;;;;;;;;;;;;24.88;100.00;101246.50;5227767;28;19925;-75
2023/09/12 09:39:31;;;;;;;;;;;;;;;24.99;100.00;101239.63;5223380;28;19928;-75
2023/09/12 09:42:02;;;;;;;;;;;;;;;25.11;100.00;101242.47;5226424;28;20004;-75
2023/09/12 09:44:34;;;;;;;;;;;;;;;25.21;100.00;101234.78;5223358;28;19996;-75
2023/09/12 09:47:05;;;;;;;;;;;;;;;25.34;100.00;101226.63;5221892;28;19957;-75
2023/09/12 09:49:36;;;;;;;;;;;;;;;25.46;100.00;101221.38;5226644;28;20031;-75
2023/09/12 09:52:07;;;;;;;;;;;;;;;25.64;100.00;101229.47;5205971;28;20004;-75
2023/09/12 09:54:43;;;;;;;;;;;;;;;25.78;100.00;101232.88;5225568;28;20397;-76
2023/09/12 09:57:15;;;;;;;;;;;;;;;25.95;100.00;101233.97;5223507;28;19926;-76
2023/09/12 09:59:52;;;;;;;;;;;;;;;26.08;100.00;101232.97;5226064;28;20384;-76
2023/09/12 10:02:25;;;;;;;;;;;;;;;26.18;100.00;101235.16;5224266;28;19913;-76
2023/09/12 10:04:58;;;;;;;;;;;;;;;26.30;100.00;101241.41;5223283;28;20055;-76
2023/09/12 10:07:32;;;;;;;;;;;;;;;26.40;100.00;101241.72;5220672;28;19997;-76
2023/09/12 10:10:04;;;;;;;;;;;;;;;26.51;100.00;101239.31;5222912;28;19926;-76
2023/09/12 10:12:36;;;;;;;;;;;;;;;26.58;100.00;101237.38;5224797;28;20294;-76
2023/09/12 10:15:07;;;;;;;;;;;;;;;26.58;100.00;101232.81;5222368;28;19958;-76
2023/09/12 10:17:41;;;;;;;;;;;;;;;26.61;100.00;101232.38;5224251;28;19920;-76
2023/09/12 10:20:19;;;;;;;;;;;;;;;26.57;100.00;101231.19;5224578;28;19921;-76
2023/09/12 10:23:07;;;;;;;;;;;;;;;26.51;100.00;101237.47;5218803;28;19909;-76
2023/09/12 10:25:38;;;;;;;;;;;;;;;26.52;100.00;101227.53;5223182;28;19924;-77
2023/09/12 10:28:10;;;;;;;;;;;;;;;26.60;100.00;101228.06;5221198;28;20378;-76
2023/09/12 10:30:42;;;;;;;;;;;;;;;26.69;100.00;101225.88;5224580;28;19929;-76
2023/09/12 10:33:15;;;;;;;;;;;;;;;26.75;100.00;101222.28;5224410;28;20420;-76
2023/09/12 10:35:46;;;;;;;;;;;;;;;26.78;100.00;101221.78;5223324;28;20362;-76
2023/09/12 10:38:20;;;;;;;;;;;;;;;26.87;100.00;101222.31;5221305;28;20008;-76
2023/09/12 10:40:53;;;;;;;;;;;;;;;27.01;100.00;101220.22;5225212;28;20278;-76
2023/09/12 10:43:25;;;;;;;;;;;;;;;27.16;100.00;101221.50;5225303;28;19921;-76
2023/09/12 10:45:56;;;;;;;;;;;;;;;27.33;100.00;101223.50;5221671;28;20286;-76
2023/09/12 10:48:27;;;;;;;;;;;;;;;27.31;100.00;101225.59;5220549;28;20374;-76
2023/09/12 10:51:00;;;;;;;;;;;;;;;27.33;100.00;101223.50;5222608;28;20309;-76
2023/09/12 10:53:33;;;;;;;;;;;;;;;27.31;100.00;101230.97;5220274;28;19917;-76
2023/09/12 10:56:20;;;;;;;;;;;;;;;27.27;100.00;101229.78;5221551;28;19923;-76
2023/09/12 10:59:01;;;;;;;;;;;;;;;27.21;100.00;101236.13;5222632;28;20027;-76
2023/09/12 11:01:33;;;;;;;;;;;;;;;27.14;100.00;101236.22;5225591;28;19971;-76
2023/09/12 11:04:27;;;;;;;;;;;;;;;27.08;100.00;101235.22;5224654;28;19960;-77
2023/09/12 11:06:58;;;;;;;;;;;;;;;27.08;100.00;101232.53;5225323;28;19913;-76
2023/09/12 11:09:29;;;;;;;;;;;;;;;27.01;100.00;101228.28;5222219;28;19928;-76
2023/09/12 11:12:05;;;;;;;;;;;;;;;26.89;100.00;101215.63;5221631;28;20306;-77
2023/09/12 11:14:37;;;;;;;;;;;;;;;26.90;100.00;101206.53;5224866;28;19963;-76
2023/09/12 11:17:08;;;;;;;;;;;;;;;26.85;100.00;101219.84;5227639;28;19921;-76
2023/09/12 11:19:44;;;;;;;;;;;;;;;26.81;100.00;101218.66;5228319;28;19940;-76
2023/09/12 11:22:25;;;;;;;;;;;;;;;26.83;100.00;101223.81;5226640;28;19917;-76
2023/09/12 11:24:57;;;;;;;;;;;;;;;26.87;100.00;101223.13;5227448;28;19916;-76
2023/09/12 11:27:44;;;;;;;;;;;;;;;26.92;100.00;101217.06;5229333;28;19924;-76
2023/09/12 11:30:16;;;;;;;;;;;;;;;26.93;100.00;101214.16;5227099;28;20395;-76
2023/09/12 11:32:50;;;;;;;;;;;;;;;27.07;100.00;101224.69;5229213;28;19959;-77
2023/09/12 11:35:24;;;;;;;;;;;;;;;27.28;100.00;101223.38;5225149;28;19916;-76
2023/09/12 11:37:57;;;;;;;;;;;;;;;27.40;100.00;101221.53;5227704;28;19917;-76
2023/09/12 11:40:34;;;;;;;;;;;;;;;27.57;100.00;101213.56;5228262;28;20290;-76
2023/09/12 11:43:05;;;;;;;;;;;;;;;27.72;100.00;101210.41;5226129;28;19921;-76
2023/09/12 11:45:42;;;;;;;;;;;;;;;27.91;100.00;101209.22;5225166;28;19979;-77
2023/09/12 11:48:13;;;;;;;;;;;;;;;28.03;96.00;101204.63;5230502;28;19913;-77
2023/09/12 11:50:49;;;;;;;;;;;;;;;28.18;100.00;101209.53;5226518;28;19984;-76
2023/09/12 11:53:22;;;;;;;;;;;;;;;28.32;93.45;101210.91;5226302;28;19962;-76
2023/09/12 11:55:56;;;;;;;;;;;;;;;28.45;93.37;101215.25;5224180;28;20372;-76
2023/09/12 11:58:27;;;;;;;;;;;;;;;28.49;98.82;101215.56;5225163;28;19917;-76
2023/09/12 12:00:58;;;;;;;;;;;;;;;28.54;94.66;101211.09;5210090;28;20371;-76
2023/09/12 12:03:30;;;;;;;;;;;;;;;28.64;89.09;101202.38;5225495;28;19913;-76
2023/09/12 12:06:01;;;;;;;;;;;;;;;28.73;92.61;101200.13;5225291;28;19917;-76
2023/09/12 12:08:32;;;;;;;;;;;;;;;28.77;86.81;101202.06;5224420;28;19918;-76
2023/09/12 12:11:03;;;;;;;;;;;;;;;28.84;90.99;101205.44;5223417;28;19921;-76
2023/09/12 12:13:34;;;;;;;;;;;;;;;28.89;80.66;101206.59;5228630;28;19932;-76
2023/09/12 12:16:18;;;;;;;;;;;;;;;28.98;80.24;101205.16;5226970;28;19959;-76
2023/09/12 12:18:54;;;;;;;;;;;;;;;29.06;86.28;101200.19;5224227;28;19925;-76
2023/09/12 12:21:25;;;;;;;;;;;;;;;29.09;87.58;101198.88;5225242;28;20015;-77
2023/09/12 12:24:00;;;;;;;;;;;;;;;29.02;84.08;101209.03;5224939;28;19959;-77
2023/09/12 12:26:31;;;;;;;;;;;;;;;28.89;85.18;101207.41;5226092;28;20073;-76
2023/09/12 12:29:03;;;;;;;;;;;;;;;28.86;85.98;101207.88;5227123;28;20019;-77
2023/09/12 12:31:34;;;;;;;;;;;;;;;28.76;84.33;101197.75;5225935;28;19923;-76
2023/09/12 12:34:06;;;;;;;;;;;;;;;28.65;86.38;101198.63;5226463;28;20359;-77
2023/09/12 12:36:41;;;;;;;;;;;;;;;28.59;85.73;101200.41;5226806;28;19992;-77
2023/09/12 12:39:12;;;;;;;;;;;;;;;28.55;85.35;101195.72;5224516;28;19924;-76
2023/09/12 12:41:44;;;;;;;;;;;;;;;28.50;89.43;101192.94;5226697;28;19917;-77
2023/09/12 12:44:15;;;;;;;;;;;;;;;28.43;86.44;101182.31;5228752;28;19920;-77
2023/09/12 12:46:53;;;;;;;;;;;;;;;28.42;87.37;101186.06;5223785;28;20049;-77
2023/09/12 12:49:24;;;;;;;;;;;;;;;28.43;87.68;101185.00;5224870;28;19991;-77
2023/09/12 12:51:56;;;;;;;;;;;;;;;28.57;85.45;101180.16;5227776;28;19913;-77
2023/09/12 12:54:30;;;;;;;;;;;;;;;28.68;82.83;101181.13;5229078;28;19921;-77